Joliet, IL (60404)

1:13 AM CDT on August 25, 2016 (GMT -0500)
Joliet Schutzhund | | Change Station

Elev 613 ft 41.50 °N, 88.08 °W | Updated 40 seconds ago

Heavy Thunderstorms and Rain
Heavy Thunderstorm Rain
72.9 °F
Feels Like 72.9 °F
N
0.0
Wind Variable Wind from SE
Gusts 8.0 mph

Today
High -- | Low -- °F
--% Chance of Precip.
Yesterday
High -- | Low -- °F
Precip. -- in
Pressure 30.02 in
Visibility 1.8 miles
Clouds Scattered Clouds 1200 ft
Mostly Cloudy 1700 ft
Overcast 7000 ft
Dew Point 72 °F
Humidity 97%
Rainfall 0.29 in
Snow Depth Not available.
6:11 AM 7:35 PM
Waning Gibbous, 49% visible
METAR KJOT 250555Z AUTO 24009G27KT 1 3/4SM +TSRA SCT012 BKN017 OVC070 23/22 A3002 RMK AO2 LTG DSNT ALQS T02330221 10280 20225 402950211
Pressure 30.02 in
Visibility 1.8 miles
Clouds Scattered Clouds 1200 ft
Mostly Cloudy 1700 ft
Overcast 7000 ft
Dew Point 72 °F
Humidity 97%
Rainfall 0.29 in
Snow Depth Not available.
6:11 AM 7:35 PM
Waning Gibbous, 49% visible
METAR KJOT 250555Z AUTO 24009G27KT 1 3/4SM +TSRA SCT012 BKN017 OVC070 23/22 A3002 RMK AO2 LTG DSNT ALQS T02330221 10280 20225 402950211

10-Day Weather Forecast

Almanac

Astronomy

Aug. 25, 2016 Rise Set
Actual Time
Civil Twilight
Nautical Twilight
Astronomical Twilight
Moon
Length of Visible Light
Length of Day
Tomorrow will be .
, % of the Moon is Illuminated

Today's Extremes

State Highs State Lows

Community

WunderPhotos

Upload Photos

1,934,803 photos uploaded!

WunderBlog® & News

Nearby

Air Quality

  Air Quality AQ Index Pollutant
Not available.

Snow Depth

Station Depth Elevation

Earthquake Activity

City Distance Mag. Time & Date
Minimum magnitude displayed is 2.5.

Coastal Water Temperatures

Place Temperature

Stations

Nearby Weather Stations

Station Location Temp. Windchill Dew Point Humidity Wind Precip. Elev Updated Type
                   

Watches & Warnings

There are currently no watches in effect.